sensor_id;sensor_type;location;lat;lon;timestamp;P1;durP1;ratioP1;P2;durP2;ratioP2
65035;SDS011;51603;49.300;8.880;2023-08-17T00:00:23;4.77;;;3.00;;
65035;SDS011;51603;49.300;8.880;2023-08-17T00:02:49;3.80;;;2.43;;
65035;SDS011;51603;49.300;8.880;2023-08-17T00:05:15;3.83;;;2.50;;
65035;SDS011;51603;49.300;8.880;2023-08-17T00:07:40;6.53;;;3.40;;
65035;SDS011;51603;49.300;8.880;2023-08-17T00:10:06;4.50;;;3.00;;
65035;SDS011;51603;49.300;8.880;2023-08-17T00:12:31;4.93;;;3.03;;
65035;SDS011;51603;49.300;8.880;2023-08-17T00:14:57;4.50;;;3.40;;
65035;SDS011;51603;49.300;8.880;2023-08-17T00:17:22;5.03;;;2.30;;
65035;SDS011;51603;49.300;8.880;2023-08-17T00:19:48;7.97;;;3.10;;
65035;SDS011;51603;49.300;8.880;2023-08-17T00:22:14;3.37;;;3.07;;
65035;SDS011;51603;49.300;8.880;2023-08-17T00:24:40;5.40;;;3.73;;
65035;SDS011;51603;49.300;8.880;2023-08-17T00:27:08;2.80;;;2.60;;
65035;SDS011;51603;49.300;8.880;2023-08-17T00:29:33;5.20;;;3.33;;
65035;SDS011;51603;49.300;8.880;2023-08-17T00:32:00;5.70;;;3.60;;
65035;SDS011;51603;49.300;8.880;2023-08-17T00:34:26;3.20;;;2.83;;
65035;SDS011;51603;49.300;8.880;2023-08-17T00:36:52;3.57;;;3.17;;
65035;SDS011;51603;49.300;8.880;2023-08-17T00:39:17;4.67;;;3.80;;
65035;SDS011;51603;49.300;8.880;2023-08-17T00:41:43;5.60;;;3.83;;
65035;SDS011;51603;49.300;8.880;2023-08-17T00:44:09;3.93;;;3.63;;
65035;SDS011;51603;49.300;8.880;2023-08-17T00:46:35;3.73;;;3.37;;
65035;SDS011;51603;49.300;8.880;2023-08-17T00:49:01;4.33;;;3.07;;
65035;SDS011;51603;49.300;8.880;2023-08-17T00:51:27;4.70;;;3.57;;
65035;SDS011;51603;49.300;8.880;2023-08-17T00:53:54;3.23;;;2.97;;
65035;SDS011;51603;49.300;8.880;2023-08-17T00:56:23;5.97;;;3.37;;
65035;SDS011;51603;49.300;8.880;2023-08-17T00:58:49;4.87;;;3.60;;
65035;SDS011;51603;49.300;8.880;2023-08-17T01:01:15;4.17;;;3.10;;
65035;SDS011;51603;49.300;8.880;2023-08-17T01:03:41;3.83;;;3.37;;
65035;SDS011;51603;49.300;8.880;2023-08-17T01:06:08;3.07;;;2.87;;
65035;SDS011;51603;49.300;8.880;2023-08-17T01:08:33;2.90;;;2.60;;
65035;SDS011;51603;49.300;8.880;2023-08-17T01:11:20;3.60;;;2.90;;
65035;SDS011;51603;49.300;8.880;2023-08-17T01:13:56;6.57;;;3.10;;
65035;SDS011;51603;49.300;8.880;2023-08-17T01:16:43;4.40;;;3.50;;
65035;SDS011;51603;49.300;8.880;2023-08-17T01:19:31;3.23;;;2.93;;
65035;SDS011;51603;49.300;8.880;2023-08-17T01:22:00;4.17;;;3.03;;
65035;SDS011;51603;49.300;8.880;2023-08-17T01:24:28;4.93;;;3.97;;
65035;SDS011;51603;49.300;8.880;2023-08-17T01:26:53;5.20;;;3.47;;
65035;SDS011;51603;49.300;8.880;2023-08-17T01:29:19;4.50;;;3.30;;
65035;SDS011;51603;49.300;8.880;2023-08-17T01:31:55;4.50;;;4.10;;
65035;SDS011;51603;49.300;8.880;2023-08-17T01:34:32;6.70;;;2.93;;
65035;SDS011;51603;49.300;8.880;2023-08-17T01:37:04;5.13;;;3.10;;
65035;SDS011;51603;49.300;8.880;2023-08-17T01:39:39;4.97;;;3.40;;
65035;SDS011;51603;49.300;8.880;2023-08-17T01:42:08;6.40;;;3.60;;
65035;SDS011;51603;49.300;8.880;2023-08-17T01:44:36;4.40;;;3.33;;
65035;SDS011;51603;49.300;8.880;2023-08-17T01:47:03;3.63;;;3.13;;
65035;SDS011;51603;49.300;8.880;2023-08-17T01:49:28;4.43;;;3.30;;
65035;SDS011;51603;49.300;8.880;2023-08-17T01:51:54;4.40;;;2.63;;
65035;SDS011;51603;49.300;8.880;2023-08-17T01:54:20;6.37;;;3.47;;
65035;SDS011;51603;49.300;8.880;2023-08-17T01:56:45;4.33;;;3.27;;
65035;SDS011;51603;49.300;8.880;2023-08-17T01:59:11;4.07;;;3.33;;
65035;SDS011;51603;49.300;8.880;2023-08-17T02:01:37;5.53;;;3.10;;
65035;SDS011;51603;49.300;8.880;2023-08-17T02:04:03;5.00;;;3.73;;
65035;SDS011;51603;49.300;8.880;2023-08-17T02:06:28;3.27;;;2.77;;
65035;SDS011;51603;49.300;8.880;2023-08-17T02:08:54;3.50;;;3.20;;
65035;SDS011;51603;49.300;8.880;2023-08-17T02:11:20;3.10;;;2.80;;
65035;SDS011;51603;49.300;8.880;2023-08-17T02:13:45;4.77;;;3.33;;
65035;SDS011;51603;49.300;8.880;2023-08-17T02:16:11;5.00;;;3.43;;
65035;SDS011;51603;49.300;8.880;2023-08-17T02:18:37;8.67;;;3.60;;
65035;SDS011;51603;49.300;8.880;2023-08-17T02:21:02;6.73;;;3.57;;
65035;SDS011;51603;49.300;8.880;2023-08-17T02:23:28;3.83;;;3.20;;
65035;SDS011;51603;49.300;8.880;2023-08-17T02:25:53;4.47;;;3.60;;
65035;SDS011;51603;49.300;8.880;2023-08-17T02:28:19;4.13;;;3.73;;
65035;SDS011;51603;49.300;8.880;2023-08-17T02:30:45;3.50;;;3.13;;
65035;SDS011;51603;49.300;8.880;2023-08-17T02:33:11;4.03;;;3.63;;
65035;SDS011;51603;49.300;8.880;2023-08-17T02:35:37;5.47;;;3.77;;
65035;SDS011;51603;49.300;8.880;2023-08-17T02:38:02;5.40;;;4.57;;
65035;SDS011;51603;49.300;8.880;2023-08-17T02:40:28;6.43;;;3.83;;
65035;SDS011;51603;49.300;8.880;2023-08-17T02:42:54;6.87;;;3.47;;
65035;SDS011;51603;49.300;8.880;2023-08-17T02:45:19;8.87;;;3.47;;
65035;SDS011;51603;49.300;8.880;2023-08-17T02:47:45;4.90;;;3.90;;
65035;SDS011;51603;49.300;8.880;2023-08-17T02:50:10;4.30;;;3.40;;
65035;SDS011;51603;49.300;8.880;2023-08-17T02:52:36;3.10;;;2.80;;
65035;SDS011;51603;49.300;8.880;2023-08-17T02:55:01;4.27;;;3.33;;
65035;SDS011;51603;49.300;8.880;2023-08-17T02:57:27;6.50;;;3.40;;
65035;SDS011;51603;49.300;8.880;2023-08-17T02:59:52;7.40;;;3.50;;
65035;SDS011;51603;49.300;8.880;2023-08-17T03:02:18;4.47;;;3.20;;
65035;SDS011;51603;49.300;8.880;2023-08-17T03:04:43;7.70;;;3.13;;
65035;SDS011;51603;49.300;8.880;2023-08-17T03:07:09;4.93;;;3.30;;
65035;SDS011;51603;49.300;8.880;2023-08-17T03:09:34;4.03;;;3.43;;
65035;SDS011;51603;49.300;8.880;2023-08-17T03:12:00;6.10;;;3.10;;
65035;SDS011;51603;49.300;8.880;2023-08-17T03:14:25;3.53;;;2.97;;
65035;SDS011;51603;49.300;8.880;2023-08-17T03:16:51;4.50;;;3.30;;
65035;SDS011;51603;49.300;8.880;2023-08-17T03:19:16;3.50;;;3.20;;
65035;SDS011;51603;49.300;8.880;2023-08-17T03:21:42;3.73;;;3.20;;
65035;SDS011;51603;49.300;8.880;2023-08-17T03:24:08;4.43;;;2.87;;
65035;SDS011;51603;49.300;8.880;2023-08-17T03:26:33;6.37;;;3.80;;
65035;SDS011;51603;49.300;8.880;2023-08-17T03:28:59;5.83;;;2.90;;
65035;SDS011;51603;49.300;8.880;2023-08-17T03:31:24;4.50;;;3.37;;
65035;SDS011;51603;49.300;8.880;2023-08-17T03:33:50;3.90;;;3.13;;
65035;SDS011;51603;49.300;8.880;2023-08-17T03:36:15;5.20;;;3.40;;
65035;SDS011;51603;49.300;8.880;2023-08-17T03:38:41;5.00;;;4.20;;
65035;SDS011;51603;49.300;8.880;2023-08-17T03:41:07;4.70;;;4.20;;
65035;SDS011;51603;49.300;8.880;2023-08-17T03:43:32;4.30;;;3.90;;
65035;SDS011;51603;49.300;8.880;2023-08-17T03:45:58;6.07;;;4.20;;
65035;SDS011;51603;49.300;8.880;2023-08-17T03:48:23;4.80;;;4.30;;
65035;SDS011;51603;49.300;8.880;2023-08-17T03:50:53;4.40;;;4.00;;
65035;SDS011;51603;49.300;8.880;2023-08-17T03:53:19;5.47;;;3.93;;
65035;SDS011;51603;49.300;8.880;2023-08-17T03:55:48;3.90;;;3.57;;
65035;SDS011;51603;49.300;8.880;2023-08-17T03:58:14;7.03;;;3.60;;
65035;SDS011;51603;49.300;8.880;2023-08-17T04:00:40;5.43;;;4.23;;
65035;SDS011;51603;49.300;8.880;2023-08-17T04:03:07;7.03;;;4.03;;
65035;SDS011;51603;49.300;8.880;2023-08-17T04:05:32;4.80;;;4.07;;
65035;SDS011;51603;49.300;8.880;2023-08-17T04:07:58;4.73;;;4.20;;
65035;SDS011;51603;49.300;8.880;2023-08-17T04:10:28;5.40;;;3.40;;
65035;SDS011;51603;49.300;8.880;2023-08-17T04:12:54;6.03;;;4.50;;
65035;SDS011;51603;49.300;8.880;2023-08-17T04:15:23;6.17;;;4.20;;
65035;SDS011;51603;49.300;8.880;2023-08-17T04:17:48;4.57;;;4.17;;
65035;SDS011;51603;49.300;8.880;2023-08-17T04:20:14;5.27;;;4.77;;
65035;SDS011;51603;49.300;8.880;2023-08-17T04:22:39;6.10;;;5.30;;
65035;SDS011;51603;49.300;8.880;2023-08-17T04:25:05;10.87;;;6.23;;
65035;SDS011;51603;49.300;8.880;2023-08-17T04:27:32;7.50;;;5.40;;
65035;SDS011;51603;49.300;8.880;2023-08-17T04:29:57;13.90;;;6.10;;
65035;SDS011;51603;49.300;8.880;2023-08-17T04:32:23;8.77;;;5.83;;
65035;SDS011;51603;49.300;8.880;2023-08-17T04:34:48;8.63;;;6.00;;
65035;SDS011;51603;49.300;8.880;2023-08-17T04:37:14;5.57;;;5.03;;
65035;SDS011;51603;49.300;8.880;2023-08-17T04:39:40;6.00;;;5.40;;
65035;SDS011;51603;49.300;8.880;2023-08-17T04:42:06;4.50;;;4.10;;
65035;SDS011;51603;49.300;8.880;2023-08-17T04:58:52;5.13;;;4.23;;
65035;SDS011;51603;49.300;8.880;2023-08-17T05:01:18;5.70;;;4.50;;
65035;SDS011;51603;49.300;8.880;2023-08-17T05:03:43;5.27;;;4.77;;
65035;SDS011;51603;49.300;8.880;2023-08-17T05:06:09;5.47;;;4.60;;
65035;SDS011;51603;49.300;8.880;2023-08-17T05:21:28;2.80;;;2.50;;
65035;SDS011;51603;49.300;8.880;2023-08-17T05:23:54;2.90;;;2.70;;
65035;SDS011;51603;49.300;8.880;2023-08-17T05:26:20;2.37;;;2.17;;
65035;SDS011;51603;49.300;8.880;2023-08-17T05:28:46;2.73;;;2.53;;
65035;SDS011;51603;49.300;8.880;2023-08-17T05:31:12;3.47;;;2.53;;
65035;SDS011;51603;49.300;8.880;2023-08-17T05:33:38;43.73;;;5.60;;
65035;SDS011;51603;49.300;8.880;2023-08-17T05:36:05;5.63;;;3.33;;
65035;SDS011;51603;49.300;8.880;2023-08-17T05:38:31;3.53;;;3.20;;
65035;SDS011;51603;49.300;8.880;2023-08-17T05:40:58;3.97;;;3.67;;
65035;SDS011;51603;49.300;8.880;2023-08-17T05:43:24;3.83;;;3.43;;
65035;SDS011;51603;49.300;8.880;2023-08-17T05:45:50;3.40;;;2.87;;
65035;SDS011;51603;49.300;8.880;2023-08-17T05:48:18;3.17;;;2.90;;
65035;SDS011;51603;49.300;8.880;2023-08-17T06:05:44;3.50;;;3.20;;
65035;SDS011;51603;49.300;8.880;2023-08-17T06:08:10;4.30;;;3.83;;
65035;SDS011;51603;49.300;8.880;2023-08-17T06:10:35;3.83;;;3.53;;
65035;SDS011;51603;49.300;8.880;2023-08-17T06:13:01;4.17;;;3.77;;
65035;SDS011;51603;49.300;8.880;2023-08-17T06:15:26;4.80;;;4.40;;
65035;SDS011;51603;49.300;8.880;2023-08-17T06:17:52;6.20;;;4.70;;
65035;SDS011;51603;49.300;8.880;2023-08-17T06:20:17;5.33;;;4.87;;
65035;SDS011;51603;49.300;8.880;2023-08-17T06:22:43;5.73;;;5.23;;
65035;SDS011;51603;49.300;8.880;2023-08-17T06:25:09;7.40;;;5.80;;
65035;SDS011;51603;49.300;8.880;2023-08-17T06:27:35;6.17;;;5.67;;
65035;SDS011;51603;49.300;8.880;2023-08-17T06:30:02;7.40;;;6.80;;
65035;SDS011;51603;49.300;8.880;2023-08-17T06:32:29;6.00;;;5.47;;
65035;SDS011;51603;49.300;8.880;2023-08-17T06:34:55;6.10;;;5.60;;
65035;SDS011;51603;49.300;8.880;2023-08-17T06:37:20;5.70;;;5.20;;
65035;SDS011;51603;49.300;8.880;2023-08-17T06:39:46;5.67;;;5.17;;
65035;SDS011;51603;49.300;8.880;2023-08-17T06:42:11;7.33;;;6.70;;
65035;SDS011;51603;49.300;8.880;2023-08-17T06:44:37;7.40;;;6.77;;
65035;SDS011;51603;49.300;8.880;2023-08-17T06:47:02;8.50;;;5.43;;
65035;SDS011;51603;49.300;8.880;2023-08-17T06:49:28;5.30;;;4.80;;
65035;SDS011;51603;49.300;8.880;2023-08-17T06:51:55;5.67;;;5.17;;
65035;SDS011;51603;49.300;8.880;2023-08-17T06:54:21;5.73;;;5.10;;
65035;SDS011;51603;49.300;8.880;2023-08-17T06:56:46;5.23;;;4.83;;
65035;SDS011;51603;49.300;8.880;2023-08-17T06:59:12;5.10;;;4.70;;
65035;SDS011;51603;49.300;8.880;2023-08-17T07:01:37;5.33;;;4.83;;
65035;SDS011;51603;49.300;8.880;2023-08-17T07:04:03;5.70;;;5.20;;
65035;SDS011;51603;49.300;8.880;2023-08-17T07:06:29;5.30;;;4.80;;
65035;SDS011;51603;49.300;8.880;2023-08-17T07:08:54;7.00;;;4.80;;
65035;SDS011;51603;49.300;8.880;2023-08-17T07:11:20;4.70;;;4.27;;
65035;SDS011;51603;49.300;8.880;2023-08-17T07:13:46;5.60;;;4.73;;
65035;SDS011;51603;49.300;8.880;2023-08-17T07:16:12;4.93;;;4.43;;
65035;SDS011;51603;49.300;8.880;2023-08-17T07:18:38;8.70;;;5.07;;
65035;SDS011;51603;49.300;8.880;2023-08-17T07:21:04;5.00;;;4.60;;
65035;SDS011;51603;49.300;8.880;2023-08-17T07:23:29;4.40;;;4.00;;
65035;SDS011;51603;49.300;8.880;2023-08-17T07:25:55;4.97;;;4.53;;
65035;SDS011;51603;49.300;8.880;2023-08-17T07:28:20;4.80;;;4.20;;
65035;SDS011;51603;49.300;8.880;2023-08-17T07:30:46;4.63;;;4.23;;
65035;SDS011;51603;49.300;8.880;2023-08-17T07:33:11;7.77;;;4.30;;
65035;SDS011;51603;49.300;8.880;2023-08-17T07:35:37;5.60;;;4.43;;
65035;SDS011;51603;49.300;8.880;2023-08-17T07:38:02;4.43;;;4.13;;
65035;SDS011;51603;49.300;8.880;2023-08-17T07:40:28;7.50;;;4.00;;
65035;SDS011;51603;49.300;8.880;2023-08-17T07:42:53;6.47;;;5.33;;
65035;SDS011;51603;49.300;8.880;2023-08-17T07:45:19;6.20;;;5.70;;
65035;SDS011;51603;49.300;8.880;2023-08-17T07:47:44;6.30;;;5.70;;
65035;SDS011;51603;49.300;8.880;2023-08-17T07:50:10;5.07;;;4.60;;
65035;SDS011;51603;49.300;8.880;2023-08-17T07:52:35;5.30;;;4.90;;
65035;SDS011;51603;49.300;8.880;2023-08-17T07:55:01;5.70;;;5.30;;
65035;SDS011;51603;49.300;8.880;2023-08-17T07:57:28;7.07;;;6.37;;
65035;SDS011;51603;49.300;8.880;2023-08-17T07:59:53;6.57;;;5.97;;
65035;SDS011;51603;49.300;8.880;2023-08-17T08:02:19;6.57;;;6.00;;
65035;SDS011;51603;49.300;8.880;2023-08-17T08:04:45;6.40;;;5.80;;
65035;SDS011;51603;49.300;8.880;2023-08-17T08:07:10;6.60;;;6.00;;
65035;SDS011;51603;49.300;8.880;2023-08-17T08:09:36;6.67;;;6.07;;
65035;SDS011;51603;49.300;8.880;2023-08-17T08:12:02;7.27;;;6.57;;
65035;SDS011;51603;49.300;8.880;2023-08-17T08:14:28;7.30;;;6.00;;
65035;SDS011;51603;49.300;8.880;2023-08-17T08:16:54;6.77;;;6.07;;
65035;SDS011;51603;49.300;8.880;2023-08-17T08:19:19;5.80;;;5.40;;
65035;SDS011;51603;49.300;8.880;2023-08-17T08:21:45;6.10;;;5.50;;
65035;SDS011;51603;49.300;8.880;2023-08-17T08:24:10;6.60;;;5.97;;
65035;SDS011;51603;49.300;8.880;2023-08-17T08:26:36;7.73;;;6.90;;
65035;SDS011;51603;49.300;8.880;2023-08-17T08:29:01;7.30;;;6.60;;
65035;SDS011;51603;49.300;8.880;2023-08-17T08:31:27;6.50;;;5.90;;
65035;SDS011;51603;49.300;8.880;2023-08-17T08:33:52;7.97;;;7.13;;
65035;SDS011;51603;49.300;8.880;2023-08-17T08:36:19;6.67;;;6.17;;
65035;SDS011;51603;49.300;8.880;2023-08-17T08:38:44;5.73;;;5.27;;
65035;SDS011;51603;49.300;8.880;2023-08-17T08:41:10;6.80;;;5.57;;
65035;SDS011;51603;49.300;8.880;2023-08-17T08:43:36;5.67;;;5.20;;
65035;SDS011;51603;49.300;8.880;2023-08-17T08:46:03;6.37;;;5.53;;
65035;SDS011;51603;49.300;8.880;2023-08-17T08:48:29;7.60;;;7.00;;
65035;SDS011;51603;49.300;8.880;2023-08-17T08:51:00;5.83;;;5.33;;
65035;SDS011;51603;49.300;8.880;2023-08-17T08:53:32;6.43;;;5.83;;
65035;SDS011;51603;49.300;8.880;2023-08-17T08:56:02;5.50;;;5.10;;
65035;SDS011;51603;49.300;8.880;2023-08-17T08:58:29;5.50;;;5.10;;
65035;SDS011;51603;49.300;8.880;2023-08-17T09:00:56;7.00;;;6.40;;
65035;SDS011;51603;49.300;8.880;2023-08-17T09:03:23;4.67;;;4.27;;
65035;SDS011;51603;49.300;8.880;2023-08-17T09:05:50;7.67;;;5.80;;
65035;SDS011;51603;49.300;8.880;2023-08-17T09:08:20;6.47;;;5.23;;
65035;SDS011;51603;49.300;8.880;2023-08-17T09:10:46;6.60;;;5.63;;
65035;SDS011;51603;49.300;8.880;2023-08-17T09:13:12;6.40;;;5.90;;
65035;SDS011;51603;49.300;8.880;2023-08-17T09:15:37;5.30;;;4.60;;
65035;SDS011;51603;49.300;8.880;2023-08-17T09:18:04;6.00;;;5.43;;
65035;SDS011;51603;49.300;8.880;2023-08-17T09:20:36;5.13;;;4.23;;
65035;SDS011;51603;49.300;8.880;2023-08-17T09:23:03;7.57;;;6.83;;
65035;SDS011;51603;49.300;8.880;2023-08-17T09:25:29;6.23;;;5.73;;
65035;SDS011;51603;49.300;8.880;2023-08-17T09:27:56;6.20;;;5.60;;
65035;SDS011;51603;49.300;8.880;2023-08-17T09:30:22;5.23;;;4.83;;
65035;SDS011;51603;49.300;8.880;2023-08-17T09:32:48;6.27;;;5.70;;
65035;SDS011;51603;49.300;8.880;2023-08-17T09:35:14;6.40;;;4.70;;
65035;SDS011;51603;49.300;8.880;2023-08-17T09:37:40;6.90;;;6.20;;
65035;SDS011;51603;49.300;8.880;2023-08-17T09:40:05;5.90;;;5.30;;
65035;SDS011;51603;49.300;8.880;2023-08-17T09:42:34;6.40;;;5.80;;
65035;SDS011;51603;49.300;8.880;2023-08-17T09:45:00;4.83;;;4.43;;
65035;SDS011;51603;49.300;8.880;2023-08-17T09:47:27;6.87;;;5.80;;
65035;SDS011;51603;49.300;8.880;2023-08-17T09:49:53;5.50;;;5.10;;
65035;SDS011;51603;49.300;8.880;2023-08-17T09:52:22;4.73;;;4.33;;
65035;SDS011;51603;49.300;8.880;2023-08-17T09:54:48;5.17;;;4.67;;
65035;SDS011;51603;49.300;8.880;2023-08-17T09:57:14;14.53;;;5.60;;
65035;SDS011;51603;49.300;8.880;2023-08-17T09:59:40;5.27;;;4.87;;
65035;SDS011;51603;49.300;8.880;2023-08-17T10:02:10;6.37;;;5.77;;
65035;SDS011;51603;49.300;8.880;2023-08-17T10:04:44;5.93;;;5.30;;
65035;SDS011;51603;49.300;8.880;2023-08-17T10:07:15;6.67;;;5.97;;
65035;SDS011;51603;49.300;8.880;2023-08-17T10:09:45;7.10;;;6.50;;
65035;SDS011;51603;49.300;8.880;2023-08-17T10:12:15;6.97;;;6.27;;
65035;SDS011;51603;49.300;8.880;2023-08-17T10:14:42;7.63;;;6.30;;
65035;SDS011;51603;49.300;8.880;2023-08-17T10:17:14;7.67;;;6.97;;
65035;SDS011;51603;49.300;8.880;2023-08-17T10:19:47;7.63;;;6.83;;
65035;SDS011;51603;49.300;8.880;2023-08-17T10:24:58;9.80;;;7.20;;
65035;SDS011;51603;49.300;8.880;2023-08-17T10:27:26;6.57;;;6.00;;
65035;SDS011;51603;49.300;8.880;2023-08-17T10:29:52;9.10;;;6.90;;
65035;SDS011;51603;49.300;8.880;2023-08-17T10:32:17;5.90;;;5.40;;
65035;SDS011;51603;49.300;8.880;2023-08-17T10:34:46;8.67;;;6.07;;
65035;SDS011;51603;49.300;8.880;2023-08-17T10:37:11;7.47;;;6.77;;
65035;SDS011;51603;49.300;8.880;2023-08-17T10:39:44;7.80;;;6.57;;
65035;SDS011;51603;49.300;8.880;2023-08-17T10:42:10;7.20;;;6.30;;
65035;SDS011;51603;49.300;8.880;2023-08-17T10:44:45;6.30;;;5.70;;
65035;SDS011;51603;49.300;8.880;2023-08-17T10:47:21;6.97;;;6.37;;
65035;SDS011;51603;49.300;8.880;2023-08-17T10:50:01;6.20;;;5.70;;
65035;SDS011;51603;49.300;8.880;2023-08-17T10:54:56;8.00;;;6.87;;
65035;SDS011;51603;49.300;8.880;2023-08-17T10:57:27;6.43;;;5.83;;
65035;SDS011;51603;49.300;8.880;2023-08-17T11:03:04;7.00;;;6.30;;
65035;SDS011;51603;49.300;8.880;2023-08-17T11:05:46;6.23;;;5.63;;
65035;SDS011;51603;49.300;8.880;2023-08-17T11:08:34;7.87;;;7.07;;
65035;SDS011;51603;49.300;8.880;2023-08-17T11:13:36;6.87;;;6.27;;
65035;SDS011;51603;49.300;8.880;2023-08-17T11:16:03;7.63;;;7.00;;
65035;SDS011;51603;49.300;8.880;2023-08-17T11:33:11;7.43;;;6.83;;
65035;SDS011;51603;49.300;8.880;2023-08-17T11:35:38;7.07;;;6.47;;
65035;SDS011;51603;49.300;8.880;2023-08-17T11:38:04;6.73;;;6.13;;
65035;SDS011;51603;49.300;8.880;2023-08-17T11:40:30;6.70;;;6.20;;
65035;SDS011;51603;49.300;8.880;2023-08-17T11:42:57;6.30;;;5.70;;
65035;SDS011;51603;49.300;8.880;2023-08-17T11:45:23;8.77;;;5.77;;
65035;SDS011;51603;49.300;8.880;2023-08-17T11:47:48;6.70;;;5.83;;
65035;SDS011;51603;49.300;8.880;2023-08-17T11:50:14;5.77;;;5.27;;
65035;SDS011;51603;49.300;8.880;2023-08-17T11:52:40;6.73;;;6.13;;
65035;SDS011;51603;49.300;8.880;2023-08-17T11:55:06;5.67;;;5.17;;
65035;SDS011;51603;49.300;8.880;2023-08-17T11:57:34;6.77;;;5.80;;
65035;SDS011;51603;49.300;8.880;2023-08-17T12:00:00;5.83;;;5.30;;
65035;SDS011;51603;49.300;8.880;2023-08-17T12:02:29;6.27;;;5.57;;
65035;SDS011;51603;49.300;8.880;2023-08-17T12:04:55;6.10;;;5.27;;
65035;SDS011;51603;49.300;8.880;2023-08-17T12:07:25;6.13;;;5.57;;
65035;SDS011;51603;49.300;8.880;2023-08-17T12:09:51;6.97;;;5.83;;
65035;SDS011;51603;49.300;8.880;2023-08-17T12:12:18;5.73;;;4.93;;
65035;SDS011;51603;49.300;8.880;2023-08-17T12:14:45;7.50;;;5.40;;
65035;SDS011;51603;49.300;8.880;2023-08-17T12:17:15;6.23;;;5.00;;
65035;SDS011;51603;49.300;8.880;2023-08-17T12:19:42;7.13;;;5.37;;
65035;SDS011;51603;49.300;8.880;2023-08-17T12:22:08;5.13;;;4.63;;
65035;SDS011;51603;49.300;8.880;2023-08-17T12:24:33;7.00;;;5.30;;
65035;SDS011;51603;49.300;8.880;2023-08-17T12:27:02;6.70;;;6.00;;
65035;SDS011;51603;49.300;8.880;2023-08-17T12:29:28;6.43;;;5.83;;
65035;SDS011;51603;49.300;8.880;2023-08-17T12:31:56;7.70;;;5.73;;
65035;SDS011;51603;49.300;8.880;2023-08-17T12:34:22;7.93;;;6.07;;
65035;SDS011;51603;49.300;8.880;2023-08-17T12:36:48;6.40;;;5.80;;
65035;SDS011;51603;49.300;8.880;2023-08-17T12:39:14;6.50;;;5.90;;
65035;SDS011;51603;49.300;8.880;2023-08-17T12:41:40;7.80;;;7.00;;
65035;SDS011;51603;49.300;8.880;2023-08-17T12:44:06;7.93;;;6.77;;
65035;SDS011;51603;49.300;8.880;2023-08-17T12:46:31;8.17;;;7.37;;
65035;SDS011;51603;49.300;8.880;2023-08-17T12:48:59;7.83;;;7.20;;
65035;SDS011;51603;49.300;8.880;2023-08-17T12:51:25;8.30;;;7.60;;
65035;SDS011;51603;49.300;8.880;2023-08-17T12:53:50;9.07;;;7.50;;
65035;SDS011;51603;49.300;8.880;2023-08-17T12:56:16;15.93;;;7.73;;
65035;SDS011;51603;49.300;8.880;2023-08-17T12:58:41;8.03;;;7.13;;
65035;SDS011;51603;49.300;8.880;2023-08-17T13:01:07;8.50;;;7.80;;
65035;SDS011;51603;49.300;8.880;2023-08-17T13:03:32;7.90;;;7.20;;
65035;SDS011;51603;49.300;8.880;2023-08-17T13:05:58;8.13;;;7.43;;
65035;SDS011;51603;49.300;8.880;2023-08-17T13:08:23;6.60;;;6.10;;
65035;SDS011;51603;49.300;8.880;2023-08-17T13:10:49;7.97;;;7.30;;
65035;SDS011;51603;49.300;8.880;2023-08-17T13:13:14;7.97;;;7.13;;
65035;SDS011;51603;49.300;8.880;2023-08-17T13:15:40;8.77;;;7.77;;
65035;SDS011;51603;49.300;8.880;2023-08-17T13:18:07;7.73;;;7.13;;
65035;SDS011;51603;49.300;8.880;2023-08-17T13:20:32;7.17;;;6.60;;
65035;SDS011;51603;49.300;8.880;2023-08-17T13:22:58;9.87;;;7.23;;
65035;SDS011;51603;49.300;8.880;2023-08-17T13:25:23;7.57;;;6.87;;
65035;SDS011;51603;49.300;8.880;2023-08-17T13:27:49;6.67;;;6.17;;
65035;SDS011;51603;49.300;8.880;2023-08-17T13:30:14;7.60;;;7.00;;
65035;SDS011;51603;49.300;8.880;2023-08-17T13:32:40;6.83;;;6.33;;
65035;SDS011;51603;49.300;8.880;2023-08-17T13:35:06;6.70;;;6.10;;
65035;SDS011;51603;49.300;8.880;2023-08-17T13:37:31;7.87;;;6.47;;
65035;SDS011;51603;49.300;8.880;2023-08-17T13:39:57;6.60;;;6.03;;
65035;SDS011;51603;49.300;8.880;2023-08-17T13:42:23;8.40;;;7.70;;
65035;SDS011;51603;49.300;8.880;2023-08-17T13:44:49;8.80;;;8.10;;
65035;SDS011;51603;49.300;8.880;2023-08-17T13:47:14;9.67;;;8.97;;
65035;SDS011;51603;49.300;8.880;2023-08-17T13:49:40;8.57;;;7.87;;
65035;SDS011;51603;49.300;8.880;2023-08-17T13:52:06;9.27;;;8.47;;
65035;SDS011;51603;49.300;8.880;2023-08-17T13:54:31;9.97;;;9.10;;
65035;SDS011;51603;49.300;8.880;2023-08-17T13:56:57;10.17;;;8.30;;
65035;SDS011;51603;49.300;8.880;2023-08-17T13:59:22;7.53;;;6.83;;
65035;SDS011;51603;49.300;8.880;2023-08-17T14:01:48;7.90;;;7.20;;
65035;SDS011;51603;49.300;8.880;2023-08-17T14:04:13;7.67;;;7.13;;
65035;SDS011;51603;49.300;8.880;2023-08-17T14:06:40;8.43;;;7.33;;
65035;SDS011;51603;49.300;8.880;2023-08-17T14:09:06;9.00;;;7.67;;
65035;SDS011;51603;49.300;8.880;2023-08-17T14:11:31;9.50;;;8.80;;
65035;SDS011;51603;49.300;8.880;2023-08-17T14:13:57;9.40;;;8.60;;
65035;SDS011;51603;49.300;8.880;2023-08-17T14:16:22;10.20;;;9.40;;
65035;SDS011;51603;49.300;8.880;2023-08-17T14:18:48;8.63;;;7.93;;
65035;SDS011;51603;49.300;8.880;2023-08-17T14:21:13;8.60;;;7.07;;
65035;SDS011;51603;49.300;8.880;2023-08-17T14:23:39;6.73;;;6.23;;
65035;SDS011;51603;49.300;8.880;2023-08-17T14:26:05;6.23;;;5.83;;
65035;SDS011;51603;49.300;8.880;2023-08-17T14:28:31;6.87;;;6.27;;
65035;SDS011;51603;49.300;8.880;2023-08-17T14:30:56;6.50;;;5.90;;
65035;SDS011;51603;49.300;8.880;2023-08-17T14:33:22;6.13;;;5.63;;
65035;SDS011;51603;49.300;8.880;2023-08-17T14:35:47;10.10;;;6.23;;
65035;SDS011;51603;49.300;8.880;2023-08-17T14:38:13;5.50;;;5.10;;
65035;SDS011;51603;49.300;8.880;2023-08-17T14:40:45;5.50;;;5.00;;
65035;SDS011;51603;49.300;8.880;2023-08-17T14:43:12;6.80;;;6.20;;
65035;SDS011;51603;49.300;8.880;2023-08-17T14:45:39;6.00;;;5.53;;
65035;SDS011;51603;49.300;8.880;2023-08-17T14:48:05;7.00;;;5.90;;
65035;SDS011;51603;49.300;8.880;2023-08-17T14:50:32;6.20;;;5.43;;
65035;SDS011;51603;49.300;8.880;2023-08-17T14:53:01;6.30;;;5.80;;
65035;SDS011;51603;49.300;8.880;2023-08-17T14:55:28;6.50;;;6.00;;
65035;SDS011;51603;49.300;8.880;2023-08-17T14:57:54;7.00;;;6.27;;
65035;SDS011;51603;49.300;8.880;2023-08-17T15:00:20;5.93;;;5.50;;
65035;SDS011;51603;49.300;8.880;2023-08-17T15:02:45;7.83;;;6.43;;
65035;SDS011;51603;49.300;8.880;2023-08-17T15:05:11;7.03;;;6.00;;
65035;SDS011;51603;49.300;8.880;2023-08-17T15:07:36;6.00;;;5.30;;
65035;SDS011;51603;49.300;8.880;2023-08-17T15:10:02;6.93;;;6.40;;
65035;SDS011;51603;49.300;8.880;2023-08-17T15:12:28;6.10;;;5.60;;
65035;SDS011;51603;49.300;8.880;2023-08-17T15:14:54;6.03;;;5.50;;
65035;SDS011;51603;49.300;8.880;2023-08-17T15:17:19;6.10;;;5.60;;
65035;SDS011;51603;49.300;8.880;2023-08-17T15:19:45;5.07;;;4.67;;
65035;SDS011;51603;49.300;8.880;2023-08-17T15:22:10;5.20;;;4.70;;
65035;SDS011;51603;49.300;8.880;2023-08-17T15:24:36;5.83;;;5.17;;
65035;SDS011;51603;49.300;8.880;2023-08-17T15:27:01;5.93;;;5.40;;
65035;SDS011;51603;49.300;8.880;2023-08-17T15:29:27;6.07;;;5.47;;
65035;SDS011;51603;49.300;8.880;2023-08-17T15:31:52;5.40;;;4.90;;
65035;SDS011;51603;49.300;8.880;2023-08-17T15:34:18;6.70;;;4.80;;
65035;SDS011;51603;49.300;8.880;2023-08-17T15:36:43;5.47;;;4.97;;
65035;SDS011;51603;49.300;8.880;2023-08-17T15:39:09;5.60;;;5.10;;
65035;SDS011;51603;49.300;8.880;2023-08-17T15:41:34;5.60;;;5.07;;
65035;SDS011;51603;49.300;8.880;2023-08-17T15:44:00;5.67;;;5.17;;
65035;SDS011;51603;49.300;8.880;2023-08-17T15:46:25;7.40;;;5.10;;
65035;SDS011;51603;49.300;8.880;2023-08-17T15:48:51;6.77;;;5.60;;
65035;SDS011;51603;49.300;8.880;2023-08-17T15:51:16;6.30;;;5.70;;